<?xml version="1.0" encoding="UTF-8" standalone="no" ?>
<gpx xmlns="http://www.topografix.com/GPX/1/1" xmlns:xsi="http://www.w3.org/2001/XMLSchema-instance" xsi:schemaLocation="http://www.topografix.com/GPX/1/1 http://www.topografix.com/GPX/1/1/gpx.xsd" version="1.1" creator="VisuGPX - https://www.visugpx.com">
  <metadata>
    <name>10: Ravin de Moncourtet - ravin de Coulon</name>
    <desc><![CDATA[10: Ravin de Moncourtet - ravin de Coulon]]></desc>
  </metadata>
  <wpt lat="43.83631" lon="3.12279">
    <ele>520</ele>
    <name><![CDATA[Accueil PdC Centre]]></name>
  </wpt>
  <wpt lat="43.8336" lon="3.12054">
    <ele>555</ele>
    <name><![CDATA[RMA]]></name>
  </wpt>
  <wpt lat="43.8271" lon="3.1147">
    <ele>640.1</ele>
    <name><![CDATA[RMB]]></name>
  </wpt>
  <wpt lat="43.82916" lon="3.11905">
    <ele>669.9</ele>
    <name><![CDATA[MTA]]></name>
  </wpt>
  <wpt lat="43.83214" lon="3.12269">
    <ele>655</ele>
    <name><![CDATA[MTB]]></name>
  </wpt>
  <wpt lat="43.83143" lon="3.1247">
    <ele>644.9</ele>
    <name><![CDATA[MTC]]></name>
  </wpt>
  <wpt lat="43.82395" lon="3.11845">
    <ele>592.1</ele>
    <name><![CDATA[RCO]]></name>
  </wpt>
  <wpt lat="43.82762" lon="3.1252">
    <ele>585.1</ele>
    <name><![CDATA[RCC]]></name>
  </wpt>
  <wpt lat="43.82894" lon="3.12881">
    <ele>555</ele>
    <name><![CDATA[RCB]]></name>
  </wpt>
  <wpt lat="43.82921" lon="3.12521">
    <ele>514.9</ele>
    <name><![CDATA[RCA]]></name>
  </wpt>
  <wpt lat="43.82985" lon="3.129">
    <ele>500</ele>
    <name><![CDATA[MSR]]></name>
  </wpt>
  <wpt lat="43.83565" lon="3.12242">
    <ele>530.1</ele>
    <name><![CDATA[PCB]]></name>
  </wpt>
  <trk>
    <name><![CDATA[RoTr 10 PdC]]></name>
    <trkseg>
      <trkpt lat="43.83564" lon="3.12242">
        <ele>531</ele>
        <time>2010-01-01T00:00:00Z</time>
      </trkpt>
      <trkpt lat="43.83551" lon="3.12223">
        <ele>535</ele>
        <time>2010-01-01T00:00:30Z</time>
      </trkpt>
      <trkpt lat="43.83535" lon="3.12201">
        <ele>539</ele>
        <time>2010-01-01T00:01:07Z</time>
      </trkpt>
      <trkpt lat="43.83516" lon="3.12172">
        <ele>541</ele>
        <time>2010-01-01T00:01:53Z</time>
      </trkpt>
      <trkpt lat="43.83501" lon="3.12144">
        <ele>541</ele>
        <time>2010-01-01T00:02:35Z</time>
      </trkpt>
      <trkpt lat="43.83477" lon="3.12116">
        <ele>546</ele>
        <time>2010-01-01T00:03:26Z</time>
      </trkpt>
      <trkpt lat="43.8345" lon="3.12096">
        <ele>548</ele>
        <time>2010-01-01T00:04:16Z</time>
      </trkpt>
      <trkpt lat="43.83416" lon="3.12078">
        <ele>551</ele>
        <time>2010-01-01T00:05:16Z</time>
      </trkpt>
      <trkpt lat="43.83388" lon="3.12066">
        <ele>557</ele>
        <time>2010-01-01T00:06:04Z</time>
      </trkpt>
      <trkpt lat="43.83362" lon="3.12051">
        <ele>561</ele>
        <time>2010-01-01T00:06:49Z</time>
      </trkpt>
      <trkpt lat="43.83357" lon="3.12053">
        <ele>563</ele>
        <time>2010-01-01T00:06:58Z</time>
      </trkpt>
      <trkpt lat="43.8329" lon="3.12017">
        <ele>570</ele>
        <time>2010-01-01T00:08:54Z</time>
      </trkpt>
      <trkpt lat="43.83192" lon="3.1194">
        <ele>581</ele>
        <time>2010-01-01T00:11:59Z</time>
      </trkpt>
      <trkpt lat="43.83115" lon="3.11862">
        <ele>592</ele>
        <time>2010-01-01T00:14:34Z</time>
      </trkpt>
      <trkpt lat="43.83075" lon="3.11798">
        <ele>591</ele>
        <time>2010-01-01T00:16:14Z</time>
      </trkpt>
      <trkpt lat="43.83039" lon="3.11721">
        <ele>596</ele>
        <time>2010-01-01T00:18:03Z</time>
      </trkpt>
      <trkpt lat="43.83005" lon="3.11677">
        <ele>595</ele>
        <time>2010-01-01T00:19:18Z</time>
      </trkpt>
      <trkpt lat="43.82864" lon="3.11622">
        <ele>624</ele>
        <time>2010-01-01T00:23:17Z</time>
      </trkpt>
      <trkpt lat="43.82808" lon="3.1157">
        <ele>637</ele>
        <time>2010-01-01T00:25:07Z</time>
      </trkpt>
      <trkpt lat="43.82742" lon="3.11492">
        <ele>651</ele>
        <time>2010-01-01T00:27:29Z</time>
      </trkpt>
      <trkpt lat="43.82743" lon="3.11482">
        <ele>653</ele>
        <time>2010-01-01T00:27:41Z</time>
      </trkpt>
      <trkpt lat="43.82721" lon="3.11461">
        <ele>661</ele>
        <time>2010-01-01T00:28:25Z</time>
      </trkpt>
      <trkpt lat="43.82714" lon="3.11464">
        <ele>661</ele>
        <time>2010-01-01T00:28:37Z</time>
      </trkpt>
      <trkpt lat="43.82712" lon="3.11467">
        <ele>661</ele>
        <time>2010-01-01T00:28:41Z</time>
      </trkpt>
      <trkpt lat="43.82709" lon="3.11493">
        <ele>659</ele>
        <time>2010-01-01T00:29:13Z</time>
      </trkpt>
      <trkpt lat="43.8277" lon="3.11682">
        <ele>655</ele>
        <time>2010-01-01T00:33:16Z</time>
      </trkpt>
      <trkpt lat="43.82817" lon="3.11756">
        <ele>658</ele>
        <time>2010-01-01T00:35:12Z</time>
      </trkpt>
      <trkpt lat="43.82888" lon="3.11829">
        <ele>660</ele>
        <time>2010-01-01T00:37:36Z</time>
      </trkpt>
      <trkpt lat="43.82904" lon="3.11856">
        <ele>662</ele>
        <time>2010-01-01T00:38:18Z</time>
      </trkpt>
      <trkpt lat="43.82918" lon="3.119">
        <ele>669</ele>
        <time>2010-01-01T00:39:14Z</time>
      </trkpt>
      <trkpt lat="43.82918" lon="3.11903">
        <ele>669</ele>
        <time>2010-01-01T00:39:19Z</time>
      </trkpt>
      <trkpt lat="43.82939" lon="3.11932">
        <ele>665</ele>
        <time>2010-01-01T00:40:07Z</time>
      </trkpt>
      <trkpt lat="43.82972" lon="3.11984">
        <ele>661</ele>
        <time>2010-01-01T00:41:29Z</time>
      </trkpt>
      <trkpt lat="43.83028" lon="3.12096">
        <ele>659</ele>
        <time>2010-01-01T00:44:10Z</time>
      </trkpt>
      <trkpt lat="43.83071" lon="3.12148">
        <ele>664</ele>
        <time>2010-01-01T00:45:42Z</time>
      </trkpt>
      <trkpt lat="43.83123" lon="3.12183">
        <ele>660</ele>
        <time>2010-01-01T00:47:17Z</time>
      </trkpt>
      <trkpt lat="43.83186" lon="3.12222">
        <ele>654</ele>
        <time>2010-01-01T00:49:10Z</time>
      </trkpt>
      <trkpt lat="43.83205" lon="3.12248">
        <ele>654</ele>
        <time>2010-01-01T00:49:53Z</time>
      </trkpt>
      <trkpt lat="43.83212" lon="3.12264">
        <ele>653</ele>
        <time>2010-01-01T00:50:16Z</time>
      </trkpt>
      <trkpt lat="43.83213" lon="3.12267">
        <ele>653</ele>
        <time>2010-01-01T00:50:19Z</time>
      </trkpt>
      <trkpt lat="43.83215" lon="3.12283">
        <ele>652</ele>
        <time>2010-01-01T00:50:38Z</time>
      </trkpt>
      <trkpt lat="43.83214" lon="3.12302">
        <ele>652</ele>
        <time>2010-01-01T00:51:01Z</time>
      </trkpt>
      <trkpt lat="43.8319" lon="3.12377">
        <ele>650</ele>
        <time>2010-01-01T00:52:37Z</time>
      </trkpt>
      <trkpt lat="43.83174" lon="3.12416">
        <ele>647</ele>
        <time>2010-01-01T00:53:30Z</time>
      </trkpt>
      <trkpt lat="43.83145" lon="3.12467">
        <ele>634</ele>
        <time>2010-01-01T00:54:47Z</time>
      </trkpt>
      <trkpt lat="43.83143" lon="3.1247">
        <ele>633</ele>
        <time>2010-01-01T00:54:52Z</time>
      </trkpt>
      <trkpt lat="43.83124" lon="3.12477">
        <ele>628</ele>
        <time>2010-01-01T00:55:23Z</time>
      </trkpt>
      <trkpt lat="43.83048" lon="3.12321">
        <ele>637</ele>
        <time>2010-01-01T00:59:05Z</time>
      </trkpt>
      <trkpt lat="43.82982" lon="3.12229">
        <ele>630</ele>
        <time>2010-01-01T01:01:38Z</time>
      </trkpt>
      <trkpt lat="43.82886" lon="3.12124">
        <ele>621</ele>
        <time>2010-01-01T01:04:57Z</time>
      </trkpt>
      <trkpt lat="43.82795" lon="3.12036">
        <ele>619</ele>
        <time>2010-01-01T01:07:59Z</time>
      </trkpt>
      <trkpt lat="43.82671" lon="3.11946">
        <ele>613</ele>
        <time>2010-01-01T01:11:48Z</time>
      </trkpt>
      <trkpt lat="43.82598" lon="3.11897">
        <ele>614</ele>
        <time>2010-01-01T01:14:01Z</time>
      </trkpt>
      <trkpt lat="43.82535" lon="3.11874">
        <ele>612</ele>
        <time>2010-01-01T01:15:47Z</time>
      </trkpt>
      <trkpt lat="43.82455" lon="3.11847">
        <ele>610</ele>
        <time>2010-01-01T01:18:01Z</time>
      </trkpt>
      <trkpt lat="43.82422" lon="3.11835">
        <ele>608</ele>
        <time>2010-01-01T01:18:58Z</time>
      </trkpt>
      <trkpt lat="43.82403" lon="3.11836">
        <ele>609</ele>
        <time>2010-01-01T01:19:28Z</time>
      </trkpt>
      <trkpt lat="43.82398" lon="3.11844">
        <ele>609</ele>
        <time>2010-01-01T01:19:39Z</time>
      </trkpt>
      <trkpt lat="43.82397" lon="3.11845">
        <ele>609</ele>
        <time>2010-01-01T01:19:43Z</time>
      </trkpt>
      <trkpt lat="43.82396" lon="3.11857">
        <ele>608</ele>
        <time>2010-01-01T01:19:57Z</time>
      </trkpt>
      <trkpt lat="43.82416" lon="3.11898">
        <ele>601</ele>
        <time>2010-01-01T01:20:56Z</time>
      </trkpt>
      <trkpt lat="43.82415" lon="3.11925">
        <ele>602</ele>
        <time>2010-01-01T01:21:27Z</time>
      </trkpt>
      <trkpt lat="43.82421" lon="3.11933">
        <ele>603</ele>
        <time>2010-01-01T01:21:41Z</time>
      </trkpt>
      <trkpt lat="43.82443" lon="3.11938">
        <ele>601</ele>
        <time>2010-01-01T01:22:17Z</time>
      </trkpt>
      <trkpt lat="43.82457" lon="3.11951">
        <ele>601</ele>
        <time>2010-01-01T01:22:44Z</time>
      </trkpt>
      <trkpt lat="43.82512" lon="3.12019">
        <ele>601</ele>
        <time>2010-01-01T01:24:45Z</time>
      </trkpt>
      <trkpt lat="43.82715" lon="3.12332">
        <ele>593</ele>
        <time>2010-01-01T01:33:01Z</time>
      </trkpt>
      <trkpt lat="43.82716" lon="3.12344">
        <ele>593</ele>
        <time>2010-01-01T01:33:16Z</time>
      </trkpt>
      <trkpt lat="43.82708" lon="3.12351">
        <ele>596</ele>
        <time>2010-01-01T01:33:30Z</time>
      </trkpt>
      <trkpt lat="43.82668" lon="3.12356">
        <ele>612</ele>
        <time>2010-01-01T01:34:37Z</time>
      </trkpt>
      <trkpt lat="43.82662" lon="3.1236">
        <ele>614</ele>
        <time>2010-01-01T01:34:48Z</time>
      </trkpt>
      <trkpt lat="43.8266" lon="3.12374">
        <ele>615</ele>
        <time>2010-01-01T01:35:04Z</time>
      </trkpt>
      <trkpt lat="43.82677" lon="3.12402">
        <ele>608</ele>
        <time>2010-01-01T01:35:48Z</time>
      </trkpt>
      <trkpt lat="43.82758" lon="3.12507">
        <ele>587</ele>
        <time>2010-01-01T01:38:48Z</time>
      </trkpt>
      <trkpt lat="43.82764" lon="3.12518">
        <ele>587</ele>
        <time>2010-01-01T01:39:04Z</time>
      </trkpt>
      <trkpt lat="43.82766" lon="3.12519">
        <ele>587</ele>
        <time>2010-01-01T01:39:08Z</time>
      </trkpt>
      <trkpt lat="43.82768" lon="3.12516">
        <ele>585</ele>
        <time>2010-01-01T01:39:13Z</time>
      </trkpt>
      <trkpt lat="43.82818" lon="3.12566">
        <ele>576</ele>
        <time>2010-01-01T01:40:52Z</time>
      </trkpt>
      <trkpt lat="43.82832" lon="3.12584">
        <ele>574</ele>
        <time>2010-01-01T01:41:24Z</time>
      </trkpt>
      <trkpt lat="43.8284" lon="3.12603">
        <ele>571</ele>
        <time>2010-01-01T01:41:50Z</time>
      </trkpt>
      <trkpt lat="43.82851" lon="3.12647">
        <ele>569</ele>
        <time>2010-01-01T01:42:45Z</time>
      </trkpt>
      <trkpt lat="43.82865" lon="3.1273">
        <ele>564</ele>
        <time>2010-01-01T01:44:25Z</time>
      </trkpt>
      <trkpt lat="43.82884" lon="3.12808">
        <ele>553</ele>
        <time>2010-01-01T01:46:03Z</time>
      </trkpt>
      <trkpt lat="43.82888" lon="3.12842">
        <ele>549</ele>
        <time>2010-01-01T01:46:43Z</time>
      </trkpt>
      <trkpt lat="43.82889" lon="3.12874">
        <ele>545</ele>
        <time>2010-01-01T01:47:20Z</time>
      </trkpt>
      <trkpt lat="43.82891" lon="3.12879">
        <ele>543</ele>
        <time>2010-01-01T01:47:28Z</time>
      </trkpt>
      <trkpt lat="43.82893" lon="3.12881">
        <ele>542</ele>
        <time>2010-01-01T01:47:32Z</time>
      </trkpt>
      <trkpt lat="43.82899" lon="3.12876">
        <ele>539</ele>
        <time>2010-01-01T01:47:42Z</time>
      </trkpt>
      <trkpt lat="43.82902" lon="3.12828">
        <ele>541</ele>
        <time>2010-01-01T01:48:39Z</time>
      </trkpt>
      <trkpt lat="43.829" lon="3.12755">
        <ele>540</ele>
        <time>2010-01-01T01:50:05Z</time>
      </trkpt>
      <trkpt lat="43.82906" lon="3.12575">
        <ele>538</ele>
        <time>2010-01-01T01:53:38Z</time>
      </trkpt>
      <trkpt lat="43.82914" lon="3.12522">
        <ele>533</ele>
        <time>2010-01-01T01:54:42Z</time>
      </trkpt>
      <trkpt lat="43.82924" lon="3.12516">
        <ele>535</ele>
        <time>2010-01-01T01:54:58Z</time>
      </trkpt>
      <trkpt lat="43.82925" lon="3.12516">
        <ele>535</ele>
        <time>2010-01-01T01:55:00Z</time>
      </trkpt>
      <trkpt lat="43.82935" lon="3.12521">
        <ele>539</ele>
        <time>2010-01-01T01:55:17Z</time>
      </trkpt>
      <trkpt lat="43.8294" lon="3.12537">
        <ele>540</ele>
        <time>2010-01-01T01:55:37Z</time>
      </trkpt>
      <trkpt lat="43.82941" lon="3.12591">
        <ele>538</ele>
        <time>2010-01-01T01:56:41Z</time>
      </trkpt>
      <trkpt lat="43.82949" lon="3.12614">
        <ele>539</ele>
        <time>2010-01-01T01:57:12Z</time>
      </trkpt>
      <trkpt lat="43.82953" lon="3.12633">
        <ele>538</ele>
        <time>2010-01-01T01:57:35Z</time>
      </trkpt>
      <trkpt lat="43.82955" lon="3.12686">
        <ele>535</ele>
        <time>2010-01-01T01:58:37Z</time>
      </trkpt>
      <trkpt lat="43.82977" lon="3.12785">
        <ele>525</ele>
        <time>2010-01-01T02:00:39Z</time>
      </trkpt>
      <trkpt lat="43.82978" lon="3.12842">
        <ele>519</ele>
        <time>2010-01-01T02:01:47Z</time>
      </trkpt>
      <trkpt lat="43.82985" lon="3.129">
        <ele>510</ele>
        <time>2010-01-01T02:02:56Z</time>
      </trkpt>
      <trkpt lat="43.82985" lon="3.12901">
        <ele>510</ele>
        <time>2010-01-01T02:02:57Z</time>
      </trkpt>
      <trkpt lat="43.82997" lon="3.12907">
        <ele>506</ele>
        <time>2010-01-01T02:03:19Z</time>
      </trkpt>
      <trkpt lat="43.83043" lon="3.12912">
        <ele>506</ele>
        <time>2010-01-01T02:04:33Z</time>
      </trkpt>
      <trkpt lat="43.83069" lon="3.12914">
        <ele>506</ele>
        <time>2010-01-01T02:05:16Z</time>
      </trkpt>
      <trkpt lat="43.83085" lon="3.12908">
        <ele>510</ele>
        <time>2010-01-01T02:05:43Z</time>
      </trkpt>
      <trkpt lat="43.83152" lon="3.12863">
        <ele>522</ele>
        <time>2010-01-01T02:07:45Z</time>
      </trkpt>
      <trkpt lat="43.83194" lon="3.12825">
        <ele>525</ele>
        <time>2010-01-01T02:09:06Z</time>
      </trkpt>
      <trkpt lat="43.83228" lon="3.12782">
        <ele>529</ele>
        <time>2010-01-01T02:10:22Z</time>
      </trkpt>
      <trkpt lat="43.83255" lon="3.12758">
        <ele>526</ele>
        <time>2010-01-01T02:11:14Z</time>
      </trkpt>
      <trkpt lat="43.83287" lon="3.12722">
        <ele>530</ele>
        <time>2010-01-01T02:12:22Z</time>
      </trkpt>
      <trkpt lat="43.83375" lon="3.12594">
        <ele>534</ele>
        <time>2010-01-01T02:15:51Z</time>
      </trkpt>
      <trkpt lat="43.83447" lon="3.12485">
        <ele>534</ele>
        <time>2010-01-01T02:18:45Z</time>
      </trkpt>
      <trkpt lat="43.83472" lon="3.1245">
        <ele>533</ele>
        <time>2010-01-01T02:19:42Z</time>
      </trkpt>
      <trkpt lat="43.83501" lon="3.12398">
        <ele>532</ele>
        <time>2010-01-01T02:20:59Z</time>
      </trkpt>
      <trkpt lat="43.83518" lon="3.12355">
        <ele>538</ele>
        <time>2010-01-01T02:21:58Z</time>
      </trkpt>
      <trkpt lat="43.83565" lon="3.12282">
        <ele>528</ele>
        <time>2010-01-01T02:23:53Z</time>
      </trkpt>
      <trkpt lat="43.83566" lon="3.12265">
        <ele>529</ele>
        <time>2010-01-01T02:24:13Z</time>
      </trkpt>
      <trkpt lat="43.83563" lon="3.12249">
        <ele>531</ele>
        <time>2010-01-01T02:24:33Z</time>
      </trkpt>
      <trkpt lat="43.83565" lon="3.12242">
        <ele>530</ele>
        <time>2010-01-01T02:24:41Z</time>
      </trkpt>
    </trkseg>
  </trk>
</gpx>